Time;durP1;ratioP1;P1;durP2;ratioP2;P2;SDS_P1;SDS_P2;PMS_P1;PMS_P2;Temp;Humidity;BMP_temperature;BMP_pressure;BME280_temperature;BME280_humidity;BME280_pressure;Samples;Min_cycle;Max_cycle;Signal;HPM_P1;HPM_P2
2022/08/08 00:00:18;;;;;;;9.90;8.10;;;18.80;68.20;;;14.78;95.24;95884.31;4935785;28;20031;-46
2022/08/08 00:03:03;;;;;;;8.63;7.72;;;18.80;67.50;;;14.73;95.25;95878.22;4931306;28;20394;-46
2022/08/08 00:06:02;;;;;;;9.25;7.90;;;18.70;67.80;;;14.67;95.09;95879.38;4938326;28;20121;-47
2022/08/08 00:09:27;;;;;;;8.90;7.68;;;18.70;67.80;;;14.63;95.68;95887.16;4941181;28;20053;-46
2022/08/08 00:12:11;;;;;;;9.48;8.45;;;18.70;67.80;;;14.64;95.91;95886.09;4915718;29;20043;-46
2022/08/08 00:15:14;;;;;;;9.85;7.97;;;18.60;68.20;;;14.64;95.76;95878.03;4922573;29;20405;-47
2022/08/08 00:18:27;;;;;;;8.97;8.07;;;18.60;68.30;;;14.65;95.42;95884.19;4918523;29;20035;-47
2022/08/08 00:21:00;;;;;;;10.40;8.10;;;18.60;68.30;;;14.69;95.90;95888.69;4929682;29;20026;-46
2022/08/08 00:24:05;;;;;;;12.88;7.78;;;18.60;68.40;;;14.72;95.24;95885.44;4924001;28;20370;-46
2022/08/08 00:26:56;;;;;;;8.15;7.35;;;18.60;68.60;;;14.76;95.08;95885.69;4916947;28;20027;-46
2022/08/08 00:29:49;;;;;;;8.30;7.50;;;18.60;68.60;;;14.78;94.89;95878.16;4925593;28;20557;-48
2022/08/08 00:32:30;;;;;;;9.15;7.07;;;18.70;68.70;;;14.84;94.91;95878.91;4920501;28;20125;-49
2022/08/08 00:35:49;;;;;;;9.90;7.68;;;18.70;68.70;;;14.87;94.40;95876.47;4934722;28;20024;-47
2022/08/08 00:38:56;;;;;;;7.78;6.97;;;18.70;68.80;;;14.87;94.10;95881.81;4941122;28;20558;-47
2022/08/08 00:42:11;;;;;;;10.32;7.47;;;18.70;68.70;;;14.84;93.66;95882.41;4938409;28;20080;-49
2022/08/08 00:45:20;;;;;;;8.23;6.88;;;18.70;68.60;;;14.79;93.77;95872.53;4922083;29;20019;-47
2022/08/08 00:49:08;;;;;;;9.73;6.93;;;18.70;68.60;;;14.72;93.58;95877.41;4936065;28;20045;-47
2022/08/08 00:52:04;;;;;;;7.13;6.43;;;18.70;68.40;;;14.74;93.26;95877.13;4912488;29;20035;-46
2022/08/08 00:55:55;;;;;;;10.20;7.13;;;18.70;68.40;;;14.74;92.98;95874.47;4933097;28;20122;-49
2022/08/08 00:59:02;;;;;;;8.13;6.90;;;18.60;68.30;;;14.68;92.64;95871.03;4924857;28;20035;-48
2022/08/08 01:02:06;;;;;;;10.32;6.93;;;18.60;68.40;;;14.64;93.09;95866.53;4929455;28;20043;-47
2022/08/08 01:05:07;;;;;;;9.95;7.63;;;18.60;68.40;;;14.61;93.54;95862.53;4939399;28;20406;-47
2022/08/08 01:08:22;;;;;;;8.60;7.38;;;18.60;68.50;;;14.55;93.61;95859.09;4933381;29;20463;-50
2022/08/08 01:11:53;;;;;;;8.80;7.05;;;18.60;68.60;;;14.53;93.83;95858.56;4934193;29;20034;-48
2022/08/08 01:15:18;;;;;;;9.35;6.90;;;18.50;68.50;;;14.49;93.44;95854.81;4909311;29;20039;-47
2022/08/08 01:19:18;;;;;;;8.93;7.38;;;18.50;68.60;;;14.45;93.38;95847.63;4918678;29;20035;-49
2022/08/08 01:22:51;;;;;;;8.55;7.20;;;18.40;68.50;;;14.42;93.57;95846.31;4872095;29;20558;-49
2022/08/08 01:26:02;;;;;;;9.07;7.32;;;18.30;68.50;;;14.42;93.48;95849.00;4872340;29;20112;-48
2022/08/08 01:29:36;;;;;;;8.48;7.40;;;18.40;68.70;;;14.40;93.22;95845.78;4870558;29;20032;-51
2022/08/08 01:32:51;;;;;;;9.75;7.38;;;18.30;68.70;;;14.33;93.17;95846.13;4861629;29;20495;-46
2022/08/08 01:36:31;;;;;;;10.50;7.40;;;18.30;68.70;;;14.28;93.30;95840.00;4871971;29;20500;-46
2022/08/08 01:39:52;;;;;;;8.63;7.45;;;18.30;68.70;;;14.22;93.31;95847.28;4869989;29;20044;-48
2022/08/08 01:42:45;;;;;;;8.80;6.88;;;18.20;68.80;;;14.20;93.28;95852.13;4859084;29;20052;-51
2022/08/08 01:46:25;;;;;;;9.82;6.57;;;18.20;68.90;;;14.21;92.84;95853.72;4855119;29;20559;-45
2022/08/08 01:49:39;;;;;;;7.63;6.10;;;18.20;68.80;;;14.21;92.60;95853.72;4854247;29;20494;-47
2022/08/08 01:53:00;;;;;;;;;;;18.20;68.90;;;14.20;92.53;95862.06;4883408;29;20045;-49
2022/08/08 01:55:29;;;;;;;6.97;6.28;;;18.10;68.30;;;14.15;92.85;95864.78;4935477;29;20126;-49
2022/08/08 01:58:19;;;;;;;7.05;6.45;;;18.10;68.30;;;14.12;92.53;95866.91;4940154;28;20112;-47
2022/08/08 02:01:34;;;;;;;8.57;6.25;;;18.10;68.60;;;14.10;92.31;95871.78;4925188;28;20023;-45
2022/08/08 02:04:38;;;;;;;6.57;5.97;;;18.10;68.60;;;14.04;92.31;95869.38;4937974;28;20031;-45
2022/08/08 02:07:29;;;;;;;7.63;6.30;;;18.10;68.60;;;13.99;92.29;95877.47;4925340;28;20043;-47
2022/08/08 02:10:59;;;;;;;7.43;6.13;;;18.00;68.50;;;13.99;92.20;95877.47;4931599;28;20055;-49
2022/08/08 02:14:20;;;;;;;10.07;6.20;;;18.00;68.60;;;14.01;91.54;95880.69;4936948;28;20031;-46
2022/08/08 02:17:24;;;;;;;8.30;5.68;;;18.00;68.60;;;14.01;91.34;95880.69;4936800;28;20051;-46
2022/08/08 02:20:29;;;;;;;7.70;5.78;;;18.00;68.60;;;13.99;91.34;95880.16;4928768;28;20089;-46
2022/08/08 02:23:34;;;;;;;12.52;6.53;;;18.00;68.70;;;13.96;91.65;95878.03;4942162;28;20031;-45
2022/08/08 02:26:36;;;;;;;7.15;6.38;;;18.00;68.60;;;13.94;91.73;95883.66;4936922;28;20027;-46
2022/08/08 02:30:03;;;;;;;10.82;6.28;;;17.90;68.70;;;13.83;92.31;95880.25;4921803;28;20033;-49
2022/08/08 02:34:02;;;;;;;8.55;7.30;;;17.90;68.60;;;13.71;92.84;95879.00;4937191;28;20034;-47
2022/08/08 02:36:50;;;;;;;10.50;6.70;;;17.90;68.50;;;13.66;92.58;95874.44;4851089;29;20036;-46
2022/08/08 02:40:12;;;;;;;9.30;6.80;;;17.80;68.60;;;13.61;92.99;95872.63;4925567;28;20042;-48
2022/08/08 02:43:56;;;;;;;7.20;6.47;;;17.70;68.60;;;13.60;92.58;95872.88;4942868;28;20519;-48
2022/08/08 02:47:10;;;;;;;6.25;5.68;;;17.70;68.50;;;13.59;92.21;95884.66;4887771;28;20054;-51
2022/08/08 02:50:13;;;;;;;;;;;17.60;68.70;;;13.56;92.55;95879.88;4927796;28;20110;-48
2022/08/08 02:53:26;;;;;;;8.82;6.60;;;17.60;68.30;;;13.51;92.61;95880.72;4941859;28;19906;-45
2022/08/08 02:56:55;;;;;;;7.45;6.38;;;17.60;68.40;;;13.47;92.34;95881.50;4939356;28;20038;-46
2022/08/08 03:00:14;;;;;;;7.40;6.60;;;17.50;68.40;;;13.41;92.23;95883.41;4926566;28;20522;-47
2022/08/08 03:03:50;;;;;;;11.63;6.70;;;17.50;68.60;;;13.34;92.53;95883.72;4934490;28;20031;-47
2022/08/08 03:06:34;;;;;;;7.88;6.95;;;17.40;68.70;;;13.27;92.71;95872.50;4911712;28;20051;-46
2022/08/08 03:10:05;;;;;;;9.35;7.07;;;17.40;68.80;;;13.21;92.56;95878.94;4943806;28;20363;-46
2022/08/08 03:13:01;;;;;;;11.00;6.95;;;17.30;68.70;;;13.12;93.00;95881.38;4938150;28;20030;-50
2022/08/08 03:16:07;;;;;;;8.43;7.00;;;17.30;68.80;;;12.98;93.29;95872.34;4931757;28;20043;-46
2022/08/08 03:19:14;;;;;;;10.88;7.43;;;17.20;68.80;;;12.89;93.57;95877.44;4942136;28;20085;-48
2022/08/08 03:21:40;;;;;;;11.05;7.72;;;17.10;68.80;;;12.85;93.25;95880.91;4922539;28;20535;-45
2022/08/08 03:24:06;;;;;;;9.43;8.07;;;17.10;68.60;;;12.79;92.99;95884.69;4941792;28;20031;-47
2022/08/08 03:26:52;;;;;;;11.95;8.27;;;17.00;68.70;;;12.71;92.71;95891.38;4945398;28;20090;-46
2022/08/08 03:29:40;;;;;;;9.43;7.80;;;16.90;68.90;;;12.63;92.88;95900.75;4926399;28;20026;-46
2022/08/08 03:34:53;;;;;;;11.07;9.13;;;16.80;68.90;;;12.50;94.05;95891.41;4935986;28;20098;-46
2022/08/08 03:37:26;;;;;;;12.23;9.07;;;16.70;69.00;;;12.46;93.71;95897.53;4933296;28;20475;-46
2022/08/08 03:39:53;;;;;;;15.32;9.80;;;16.70;69.20;;;12.40;94.06;95896.75;4920926;29;20031;-46
2022/08/08 03:42:19;;;;;;;13.25;10.32;;;16.60;69.20;;;12.35;94.08;95898.63;4938120;28;20035;-45
2022/08/08 03:44:48;;;;;;;14.95;10.90;;;16.60;69.30;;;12.30;94.44;95907.44;4940785;28;20516;-47
2022/08/08 03:47:20;;;;;;;14.30;10.52;;;16.50;69.50;;;12.28;94.67;95912.22;4935203;28;20051;-48
2022/08/08 03:49:50;;;;;;;11.15;9.45;;;16.50;69.90;;;12.25;94.47;95913.59;4939328;28;20461;-45
2022/08/08 03:52:17;;;;;;;15.10;10.90;;;16.50;69.80;;;12.20;94.05;95918.13;4933997;28;20195;-49
2022/08/08 03:54:46;;;;;;;13.32;10.70;;;16.50;69.80;;;12.15;94.42;95907.44;4918048;28;20027;-46
2022/08/08 03:57:21;;;;;;;16.15;10.98;;;16.40;69.90;;;12.10;94.75;95905.56;4919055;28;20122;-45
2022/08/08 03:59:48;;;;;;;15.02;11.50;;;16.40;70.10;;;12.09;95.17;95901.28;4942589;28;20110;-45
2022/08/08 04:02:23;;;;;;;15.00;11.75;;;16.30;70.00;;;12.09;95.28;95900.47;4941045;28;20026;-48
2022/08/08 04:04:49;;;;;;;14.63;11.07;;;16.30;70.30;;;12.11;96.90;95904.50;4932761;28;20030;-48
2022/08/08 04:07:24;;;;;;;14.23;11.00;;;16.30;70.30;;;12.15;98.22;95905.56;4943068;28;20035;-49
2022/08/08 04:09:56;;;;;;;13.40;11.32;;;16.30;70.60;;;12.19;98.55;95905.81;4911955;29;20459;-48
2022/08/08 04:12:27;;;;;;;14.38;11.02;;;16.30;70.70;;;12.17;98.34;95913.31;4941856;28;20385;-46
2022/08/08 04:14:53;;;;;;;13.30;11.02;;;16.30;70.60;;;12.17;98.75;95913.31;4919868;29;20030;-47
2022/08/08 04:17:26;;;;;;;17.95;11.13;;;16.30;70.70;;;12.16;99.13;95915.19;4931064;29;20026;-47
2022/08/08 04:19:52;;;;;;;13.20;10.75;;;16.30;70.80;;;12.16;99.06;95909.84;4938495;28;20122;-48
2022/08/08 04:22:25;;;;;;;13.50;10.57;;;16.30;70.80;;;12.15;98.91;95910.09;4937863;28;20110;-50
2022/08/08 04:24:54;;;;;;;;;;;16.30;70.90;;;12.16;98.71;95915.19;4920770;28;20485;-48
2022/08/08 04:27:22;;;;;;;11.95;10.02;;;16.30;70.40;;;12.14;97.91;95914.63;4923903;28;19980;-45
2022/08/08 04:29:48;;;;;;;14.40;11.35;;;16.30;70.40;;;12.09;98.01;95922.63;4935832;28;20101;-45
2022/08/08 04:32:18;;;;;;;12.48;10.38;;;16.30;70.50;;;12.07;98.22;95915.97;4936681;28;20030;-46
2022/08/08 04:34:47;;;;;;;20.63;12.52;;;16.30;70.70;;;12.07;98.30;95918.66;4919421;29;20039;-48
2022/08/08 04:37:13;;;;;;;18.25;12.73;;;16.30;70.80;;;12.08;98.55;95926.38;4934309;28;20046;-50
2022/08/08 04:39:48;;;;;;;18.65;13.63;;;16.30;70.90;;;12.09;98.24;95924.50;4914159;29;20049;-48
2022/08/08 04:42:20;;;;;;;20.38;13.25;;;16.30;71.00;;;12.10;98.54;95921.59;4936852;28;20434;-47
2022/08/08 04:44:49;;;;;;;13.80;11.30;;;16.30;71.00;;;12.11;98.63;95933.06;4941996;28;20490;-45
2022/08/08 04:47:18;;;;;;;14.93;11.90;;;16.30;70.90;;;12.12;98.26;95929.31;4934789;28;20063;-49
2022/08/08 04:49:44;;;;;;;14.18;12.15;;;16.30;70.90;;;12.15;98.91;95932.25;4943369;28;20031;-46
2022/08/08 04:52:10;;;;;;;19.20;10.63;;;16.40;71.10;;;12.20;98.69;95932.28;4938309;28;20027;-48
2022/08/08 04:54:36;;;;;;;18.95;12.27;;;16.40;71.00;;;12.32;98.89;95936.56;4941015;28;20449;-48
2022/08/08 04:57:02;;;;;;;16.58;12.20;;;16.50;70.90;;;12.53;99.09;95946.16;4928831;29;20023;-47
2022/08/08 04:59:31;;;;;;;17.35;12.73;;;16.60;71.00;;;12.84;100.00;95941.59;4942479;28;20031;-48
2022/08/08 05:01:57;;;;;;;21.73;13.85;;;16.70;70.90;;;13.15;100.00;95947.69;4933686;28;20027;-49
2022/08/08 05:04:25;;;;;;;17.40;12.65;;;16.90;71.00;;;13.42;100.00;95949.25;4937186;28;20027;-48
2022/08/08 05:06:55;;;;;;;13.80;11.52;;;17.10;71.10;;;13.67;99.94;95951.03;4937858;28;20126;-48
2022/08/08 05:09:21;;;;;;;12.40;10.55;;;17.30;71.30;;;13.86;98.75;95948.53;4938710;29;20019;-51
2022/08/08 05:11:48;;;;;;;12.48;10.52;;;17.50;71.10;;;14.10;97.97;95951.31;4914204;29;20536;-50
2022/08/08 05:14:17;;;;;;;13.32;10.35;;;17.70;71.00;;;14.27;95.89;95951.75;4930345;29;20029;-46
2022/08/08 05:16:43;;;;;;;13.95;9.10;;;17.90;70.90;;;14.50;95.49;95955.59;4931786;29;20048;-47
2022/08/08 05:19:12;;;;;;;9.68;8.23;;;18.10;70.60;;;14.76;94.48;95952.72;4917579;29;20019;-52
2022/08/08 05:21:43;;;;;;;10.50;8.18;;;18.40;70.40;;;15.03;93.53;95946.84;4933927;29;20034;-50
2022/08/08 05:24:10;;;;;;;10.63;7.28;;;18.60;70.20;;;15.31;89.53;95941.72;4916708;29;20520;-49
2022/08/08 05:26:40;;;;;;;9.10;6.78;;;18.80;69.90;;;15.49;87.81;95941.78;4932049;29;20035;-52
2022/08/08 05:29:07;;;;;;;6.93;6.32;;;19.10;69.60;;;15.71;87.04;95952.00;4917927;29;20467;-49
2022/08/08 05:31:35;;;;;;;8.50;6.30;;;19.30;69.10;;;15.97;85.40;95949.00;4938758;28;20039;-44
2022/08/08 05:34:16;;;;;;;7.78;5.97;;;19.60;68.80;;;16.25;83.42;95952.63;4934990;28;20425;-49
2022/08/08 05:36:47;;;;;;;6.00;4.80;;;19.80;68.30;;;16.50;80.73;95954.13;4902776;28;20363;-50
2022/08/08 05:39:15;;;;;;;5.70;5.10;;;20.10;67.40;;;16.73;78.30;95957.00;4942460;28;20074;-48
2022/08/08 05:41:44;;;;;;;6.40;4.78;;;20.40;66.90;;;16.98;78.56;95963.88;4905711;29;20031;-47
2022/08/08 05:44:25;;;;;;;5.72;4.85;;;20.70;66.30;;;17.16;77.68;95951.44;4929936;28;20022;-43
2022/08/08 05:46:58;;;;;;;6.07;5.47;;;20.90;65.70;;;17.38;76.74;95958.84;4934117;28;20031;-52
2022/08/08 05:49:27;;;;;;;6.68;5.75;;;21.10;65.10;;;17.56;76.05;95958.75;4930158;28;20040;-50
2022/08/08 05:51:56;;;;;;;5.78;5.28;;;21.30;64.50;;;17.62;75.43;95970.22;4932326;28;20367;-47
2022/08/08 05:54:22;;;;;;;7.18;5.07;;;21.60;63.80;;;17.84;74.89;95971.44;4938951;28;20022;-50
2022/08/08 05:56:51;;;;;;;5.50;5.00;;;21.80;63.30;;;18.07;73.34;95966.91;4942368;28;20035;-47
2022/08/08 05:59:24;;;;;;;5.07;4.55;;;22.00;62.80;;;18.24;72.56;95967.88;4939812;28;20551;-47
2022/08/08 06:01:57;;;;;;;5.00;4.50;;;22.30;62.10;;;18.45;71.79;95978.97;4919218;29;20044;-49
2022/08/08 06:04:30;;;;;;;5.18;4.60;;;22.50;61.60;;;18.75;69.37;95979.41;4939089;28;20490;-49
2022/08/08 06:07:08;;;;;;;4.30;3.85;;;22.70;61.00;;;18.95;68.67;95975.41;4926315;29;20031;-49
2022/08/08 06:09:38;;;;;;;4.70;4.30;;;23.00;60.40;;;19.15;67.70;95976.81;4903826;29;20193;-51
2022/08/08 06:12:05;;;;;;;4.38;3.97;;;23.20;59.70;;;19.38;67.29;95981.03;4931941;29;20031;-49
2022/08/08 06:14:31;;;;;;;9.20;4.05;;;23.40;59.30;;;19.58;65.84;95981.59;4915379;28;20553;-51
2022/08/08 06:17:01;;;;;;;4.68;4.28;;;23.60;58.70;;;19.67;65.06;95979.75;4906020;28;20064;-53
2022/08/08 06:19:28;;;;;;;4.45;4.05;;;23.80;58.00;;;19.68;63.93;95985.94;4932362;28;20612;-50
2022/08/08 06:21:54;;;;;;;5.85;4.45;;;24.00;57.50;;;19.62;64.93;95982.59;4919068;28;20419;-51
2022/08/08 06:24:23;;;;;;;5.45;4.32;;;24.20;57.00;;;19.83;64.39;95982.81;4926720;28;20536;-52
2022/08/08 06:27:08;;;;;;;6.35;4.38;;;24.40;56.50;;;19.86;63.93;95985.69;4921955;29;20050;-53
2022/08/08 06:29:44;;;;;;;5.53;4.25;;;24.60;56.20;;;19.85;63.84;95989.50;4920542;28;20670;-51
2022/08/08 06:32:32;;;;;;;7.28;4.57;;;24.80;55.80;;;20.18;63.24;95986.41;4936117;28;20071;-50
2022/08/08 06:35:09;;;;;;;5.22;3.92;;;24.90;55.20;;;20.34;62.59;95986.75;4944327;28;20486;-50
2022/08/08 06:37:44;;;;;;;6.75;4.53;;;25.10;54.70;;;20.42;62.12;95977.81;4915113;29;20035;-49
2022/08/08 06:40:14;;;;;;;6.28;4.40;;;25.30;54.30;;;20.59;61.90;95987.91;4921614;29;20034;-49
2022/08/08 06:43:13;;;;;;;5.30;4.18;;;25.40;53.90;;;20.57;60.98;95984.72;4917378;29;20442;-52
2022/08/08 06:45:43;;;;;;;5.57;4.50;;;25.70;53.40;;;20.74;61.56;95981.97;4938619;28;20035;-51
2022/08/08 06:48:09;;;;;;;5.22;4.13;;;25.80;52.90;;;20.97;60.64;95988.03;4950195;28;20082;-49
2022/08/08 06:50:35;;;;;;;5.07;4.55;;;25.90;52.60;;;20.73;61.82;95985.81;4920899;28;20031;-46
2022/08/08 06:53:03;;;;;;;5.15;4.38;;;26.10;52.30;;;20.83;61.13;95992.81;4943988;28;20408;-46
2022/08/08 06:55:35;;;;;;;4.72;4.25;;;26.20;51.90;;;20.63;61.37;95996.97;4938964;28;20027;-49
2022/08/08 06:58:01;;;;;;;5.27;4.10;;;26.30;51.30;;;20.49;61.77;95988.97;4916221;28;20027;-49
2022/08/08 07:00:39;;;;;;;4.60;4.20;;;26.40;51.10;;;20.76;61.42;95990.59;4906106;29;20093;-49
2022/08/08 07:03:21;;;;;;;5.22;4.25;;;26.50;50.70;;;21.10;60.36;95994.38;4916615;28;20370;-54
2022/08/08 07:05:53;;;;;;;4.88;4.03;;;26.60;50.40;;;21.31;59.00;96004.50;4933346;29;20413;-50
2022/08/08 07:08:33;;;;;;;7.73;4.27;;;26.80;50.20;;;21.42;58.67;96008.50;4934324;28;20062;-48
2022/08/08 07:11:06;;;;;;;7.53;4.38;;;27.00;49.90;;;21.47;59.07;96014.56;4924317;28;20026;-48
2022/08/08 07:13:44;;;;;;;7.68;4.63;;;27.20;49.50;;;21.69;57.58;96002.69;4918934;28;20026;-49
2022/08/08 07:17:10;;;;;;;8.15;4.30;;;27.30;49.10;;;21.89;57.68;96011.19;4919957;28;20101;-50
2022/08/08 07:19:57;;;;;;;4.40;4.00;;;27.50;49.00;;;22.14;56.79;96010.25;4940260;28;20118;-49
2022/08/08 07:22:43;;;;;;;6.03;4.22;;;27.70;48.50;;;21.83;56.51;96010.56;4943612;28;20417;-49
2022/08/08 07:25:15;;;;;;;6.20;4.25;;;27.90;47.90;;;21.68;57.71;96019.25;4931643;28;20025;-49
2022/08/08 07:27:55;;;;;;;4.88;4.25;;;28.00;47.40;;;22.00;57.13;96012.44;4934356;28;20055;-52
2022/08/08 07:30:24;;;;;;;4.82;4.32;;;28.10;47.30;;;22.24;55.29;96016.47;4935013;28;20038;-49
2022/08/08 07:32:56;;;;;;;5.82;4.05;;;28.20;46.90;;;21.58;56.56;96017.69;4922683;28;20040;-49
2022/08/08 07:35:25;;;;;;;5.68;4.43;;;28.30;46.30;;;21.70;56.80;96019.72;4909173;29;20098;-50
2022/08/08 07:37:58;;;;;;;4.53;3.88;;;28.40;46.10;;;22.01;56.57;96019.44;4918956;29;20081;-55
2022/08/08 07:40:27;;;;;;;5.95;4.53;;;28.50;45.80;;;22.22;55.64;96018.69;4936428;28;20430;-53
2022/08/08 07:42:54;;;;;;;4.57;4.00;;;28.60;45.70;;;22.31;55.24;96022.16;4935306;28;20038;-54
2022/08/08 07:45:22;;;;;;;5.43;4.25;;;28.70;45.30;;;22.52;54.53;96025.69;4929715;28;20493;-50
2022/08/08 07:47:49;;;;;;;4.72;4.07;;;28.90;45.10;;;22.51;52.93;96018.66;4902430;29;20051;-51
2022/08/08 07:50:18;;;;;;;3.97;3.67;;;29.00;44.60;;;22.65;52.23;96021.13;4942474;28;20420;-48
2022/08/08 07:52:54;;;;;;;4.10;3.70;;;29.10;44.10;;;22.89;52.61;96023.16;4928493;29;20138;-50
2022/08/08 07:55:30;;;;;;;4.10;3.70;;;29.30;43.80;;;23.00;53.18;96023.56;4938442;28;20031;-50
2022/08/08 07:58:31;;;;;;;5.80;4.20;;;29.40;43.70;;;22.93;51.04;96024.06;4932458;28;20034;-48
2022/08/08 08:01:12;;;;;;;3.53;3.17;;;29.60;43.10;;;22.89;51.06;96027.81;4921489;28;20088;-54
2022/08/08 08:03:54;;;;;;;5.47;3.85;;;29.70;42.50;;;23.19;51.46;96033.94;4937690;28;20039;-50
2022/08/08 08:06:21;;;;;;;6.32;3.85;;;29.80;42.20;;;23.41;51.21;96021.88;4918365;29;20031;-51
2022/08/08 08:09:07;;;;;;;4.00;3.60;;;29.90;42.20;;;23.76;51.04;96030.50;4938875;28;20027;-54
2022/08/08 08:11:38;;;;;;;5.60;3.78;;;30.10;42.10;;;23.87;50.01;96033.56;4936277;28;20023;-52
2022/08/08 08:14:07;;;;;;;4.90;3.55;;;30.30;41.80;;;23.83;50.12;96024.50;4940582;28;20026;-55
2022/08/08 08:16:42;;;;;;;5.53;4.10;;;30.50;42.10;;;23.81;50.06;96022.09;4914876;29;20035;-54
2022/08/08 08:19:13;;;;;;;4.53;4.13;;;30.60;41.00;;;24.09;49.45;96027.66;4922174;28;20031;-54
2022/08/08 08:21:48;;;;;;;3.88;3.58;;;30.70;40.70;;;24.47;48.59;96026.53;4939007;28;20029;-52
2022/08/08 08:27:06;;;;;;;7.22;3.92;;;31.10;40.30;;;24.69;47.21;96026.03;4942639;28;20030;-51
2022/08/08 08:29:32;;;;;;;4.07;3.47;;;31.20;39.90;;;24.66;47.67;96031.34;4936536;28;20537;-54
2022/08/08 08:31:58;;;;;;;4.82;4.22;;;31.30;39.50;;;24.60;47.04;96028.09;4939305;28;20122;-50
2022/08/08 08:34:25;;;;;;;5.72;3.72;;;31.40;39.10;;;24.84;47.66;96038.13;4923954;29;20031;-55
2022/08/08 08:36:51;;;;;;;4.38;3.97;;;31.60;38.90;;;24.92;46.35;96031.75;4940349;28;20103;-50
2022/08/08 08:39:17;;;;;;;5.95;3.90;;;31.60;38.50;;;24.87;45.89;96026.53;4939649;28;20035;-54
2022/08/08 08:41:46;;;;;;;6.50;3.90;;;31.70;38.10;;;25.02;46.40;96026.94;4938202;28;20077;-53
2022/08/08 08:44:16;;;;;;;4.55;3.55;;;31.80;37.90;;;25.27;45.54;96038.56;4939275;28;20027;-50
2022/08/08 08:46:42;;;;;;;4.18;3.78;;;31.90;37.70;;;25.27;44.98;96027.66;4910551;29;20042;-49
2022/08/08 08:49:08;;;;;;;3.50;3.20;;;32.00;37.40;;;25.45;44.64;96026.22;4920973;29;20042;-48
2022/08/08 08:51:44;;;;;;;3.88;3.58;;;32.10;37.20;;;25.32;44.29;96028.22;4938435;28;20026;-51
2022/08/08 08:54:17;;;;;;;3.90;3.50;;;32.20;36.70;;;25.44;44.42;96032.00;4933754;28;20026;-49
2022/08/08 08:56:51;;;;;;;3.45;3.10;;;32.30;36.40;;;25.57;43.46;96028.88;4931915;28;20121;-51
2022/08/08 08:59:20;;;;;;;4.00;3.35;;;32.40;36.20;;;25.15;43.71;96029.28;4924441;28;20030;-55
2022/08/08 09:01:52;;;;;;;3.80;3.10;;;32.40;35.60;;;25.01;43.47;96030.78;4898854;29;20050;-55
2022/08/08 09:04:28;;;;;;;4.20;3.10;;;32.40;35.20;;;25.09;43.67;96030.66;4927163;28;20018;-53
2022/08/08 09:07:02;;;;;;;3.70;3.40;;;32.50;35.20;;;25.35;44.42;96030.25;4942355;28;20039;-54
2022/08/08 09:09:36;;;;;;;4.05;3.33;;;32.60;35.30;;;25.62;41.99;96020.41;4914065;29;20417;-55
2022/08/08 09:12:09;;;;;;;2.90;2.70;;;32.70;35.00;;;25.64;42.40;96033.72;4908631;29;20027;-51
2022/08/08 09:14:40;;;;;;;2.92;2.72;;;32.80;34.60;;;25.69;41.09;96027.19;4918271;29;20295;-51
2022/08/08 09:17:12;;;;;;;5.07;3.00;;;32.90;34.20;;;25.68;42.44;96025.63;4938260;29;20123;-50
2022/08/08 09:19:40;;;;;;;3.55;2.70;;;33.00;33.90;;;25.60;42.29;96021.91;4931003;29;20023;-50
2022/08/08 09:22:07;;;;;;;4.88;2.38;;;33.10;33.80;;;25.82;42.10;96015.06;4936464;29;20035;-51
2022/08/08 09:24:37;;;;;;;3.50;2.80;;;33.10;33.70;;;25.47;41.47;96026.63;4906130;29;20520;-55
2022/08/08 09:27:11;;;;;;;4.72;3.03;;;33.10;33.00;;;25.55;41.24;96019.44;4903649;29;20520;-54
2022/08/08 09:30:04;;;;;;;2.88;2.67;;;33.10;32.80;;;25.74;42.31;96026.94;4935425;29;20020;-48
2022/08/08 09:32:55;;;;;;;3.83;3.28;;;33.10;32.90;;;25.74;41.54;96022.28;4916488;29;20172;-52
2022/08/08 09:35:29;;;;;;;2.80;2.60;;;33.20;32.90;;;25.24;42.20;96029.16;4918284;29;20506;-51
2022/08/08 09:38:03;;;;;;;2.70;2.50;;;33.20;32.30;;;24.99;41.43;96016.75;4918892;29;20062;-52
2022/08/08 09:40:33;;;;;;;2.60;2.38;;;33.10;32.00;;;25.34;42.57;96023.19;4932092;29;20050;-50
2022/08/08 09:43:19;;;;;;;2.60;2.40;;;33.10;32.20;;;25.60;41.64;96020.00;4919373;29;20481;-52
2022/08/08 09:46:04;;;;;;;5.40;2.80;;;33.10;32.10;;;25.93;40.63;96029.78;4921256;29;20070;-51
2022/08/08 09:48:37;;;;;;;2.60;2.40;;;33.30;32.20;;;25.67;40.68;96024.81;4936601;29;20043;-49
2022/08/08 09:51:04;;;;;;;2.67;2.47;;;33.30;31.60;;;26.06;39.38;96023.06;4936713;29;20023;-54
2022/08/08 09:54:02;;;;;;;3.08;2.40;;;33.30;31.50;;;26.20;38.51;96000.78;4922001;29;20030;-48
2022/08/08 09:56:40;;;;;;;2.63;2.40;;;33.40;31.30;;;26.47;38.42;96020.88;4932363;29;20082;-56
2022/08/08 09:59:30;;;;;;;3.25;2.47;;;33.60;31.10;;;26.37;38.65;96024.19;4932758;29;20375;-49
2022/08/08 10:02:01;;;;;;;2.95;2.42;;;33.70;30.90;;;25.92;38.34;96017.28;4921410;29;20035;-53
2022/08/08 10:04:34;;;;;;;2.65;2.45;;;33.70;30.40;;;25.83;38.84;96013.94;4936709;29;20541;-54
2022/08/08 10:07:02;;;;;;;3.40;2.42;;;33.80;30.30;;;25.90;39.23;96021.50;4940239;29;20042;-56
2022/08/08 10:09:42;;;;;;;2.90;2.70;;;33.70;30.10;;;26.14;39.88;96028.72;4933929;29;20062;-55
2022/08/08 10:12:10;;;;;;;2.42;2.22;;;33.70;30.20;;;26.37;39.91;96016.00;4934882;29;20089;-56
2022/08/08 10:14:38;;;;;;;2.85;2.60;;;33.80;31.10;;;26.57;39.84;96014.09;4938337;29;20019;-54
2022/08/08 10:17:12;;;;;;;4.28;2.33;;;33.90;30.70;;;26.94;38.80;96006.28;4941826;28;20042;-55
2022/08/08 10:19:41;;;;;;;2.78;2.28;;;34.00;30.50;;;26.82;38.91;96020.09;4943607;28;20026;-53
2022/08/08 10:22:08;;;;;;;2.95;2.60;;;34.10;30.20;;;26.20;38.93;96019.91;4937561;28;20029;-55
2022/08/08 10:24:45;;;;;;;2.45;2.25;;;34.20;30.00;;;26.37;38.82;96016.00;4938322;28;20082;-56
2022/08/08 10:27:14;;;;;;;2.67;2.35;;;34.20;29.90;;;26.65;38.65;96007.66;4928580;28;20035;-56
2022/08/08 10:30:04;;;;;;;2.70;2.50;;;34.20;29.90;;;26.97;39.20;96013.00;4922865;29;20114;-56
2022/08/08 10:32:34;;;;;;;2.90;2.60;;;34.30;30.00;;;27.13;38.75;96005.50;4943610;28;20083;-53
2022/08/08 10:35:16;;;;;;;2.70;2.50;;;34.40;30.00;;;27.14;37.42;96001.66;4933548;28;20036;-51
2022/08/08 10:37:57;;;;;;;;;;;34.50;29.90;;;27.33;38.80;96017.25;4941015;28;20106;-54
2022/08/08 10:40:36;;;;;;;2.70;2.50;;;34.50;30.20;;;26.99;37.16;96013.44;4930475;28;19938;-55
2022/08/08 10:43:05;;;;;;;3.63;2.38;;;34.70;29.80;;;26.80;38.67;96008.75;4936051;28;20019;-52
2022/08/08 10:45:49;;;;;;;5.35;2.90;;;34.70;29.60;;;26.82;38.42;96006.44;4941516;28;20573;-53
2022/08/08 10:48:15;;;;;;;2.75;2.40;;;34.60;29.60;;;26.79;38.49;96003.63;4930687;28;20052;-52
2022/08/08 10:50:41;;;;;;;3.03;2.53;;;34.70;29.50;;;27.38;38.11;96008.72;4937113;28;20026;-53
2022/08/08 10:53:11;;;;;;;3.05;2.63;;;34.70;29.60;;;26.84;38.68;95995.94;4919555;28;20044;-54
2022/08/08 10:55:38;;;;;;;2.45;2.30;;;34.80;29.40;;;27.15;39.51;96005.19;4933476;28;20031;-51
2022/08/08 10:58:28;;;;;;;2.90;2.70;;;34.80;29.50;;;27.66;36.90;95993.97;4929305;29;20443;-50
2022/08/08 11:00:55;;;;;;;4.80;2.47;;;34.90;29.50;;;28.00;37.36;95992.22;4940078;28;20034;-52
2022/08/08 11:03:21;;;;;;;2.97;2.75;;;35.00;29.40;;;28.08;36.88;95995.84;4928639;28;20609;-51
2022/08/08 11:05:53;;;;;;;2.95;2.75;;;35.20;29.30;;;28.46;35.53;95999.59;4934738;28;20093;-52
2022/08/08 11:08:30;;;;;;;3.15;2.85;;;35.40;29.30;;;27.44;37.18;96009.22;4941626;28;20129;-51
2022/08/08 11:11:10;;;;;;;2.70;2.50;;;35.50;28.90;;;27.43;37.61;96002.19;4935825;28;20371;-48
2022/08/08 11:13:44;;;;;;;3.10;2.90;;;35.60;28.80;;;27.98;36.40;95986.31;4932842;28;20035;-55
2022/08/08 11:16:23;;;;;;;4.80;2.67;;;35.60;28.80;;;28.32;36.82;96000.91;4922404;29;20023;-50
2022/08/08 11:19:00;;;;;;;3.97;2.50;;;35.70;28.80;;;28.27;36.33;95987.56;4927429;28;20057;-51
2022/08/08 11:21:29;;;;;;;3.97;2.95;;;35.80;28.70;;;28.38;36.14;96007.66;4922405;28;20489;-50
2022/08/08 11:24:04;;;;;;;3.45;2.92;;;35.80;28.50;;;28.50;35.52;96000.41;4933522;28;20020;-49
2022/08/08 11:26:39;;;;;;;2.80;2.60;;;36.00;28.40;;;28.37;35.77;95989.66;4914687;28;20034;-50